sensor_id;sensor_type;location;lat;lon;timestamp;temperature;humidity
24091;DHT22;12272;52.426;17.100;2022-07-29T00:01:53;21.20;99.90
24091;DHT22;12272;52.426;17.100;2022-07-29T00:06:56;21.20;99.90
24091;DHT22;12272;52.426;17.100;2022-07-29T00:12:00;21.20;99.90
24091;DHT22;12272;52.426;17.100;2022-07-29T00:17:03;21.10;99.90
24091;DHT22;12272;52.426;17.100;2022-07-29T00:22:05;21.20;99.90
24091;DHT22;12272;52.426;17.100;2022-07-29T00:27:08;21.20;99.90
24091;DHT22;12272;52.426;17.100;2022-07-29T00:32:11;21.20;99.90
24091;DHT22;12272;52.426;17.100;2022-07-29T00:37:13;21.10;99.90
24091;DHT22;12272;52.426;17.100;2022-07-29T00:42:16;21.10;99.90
24091;DHT22;12272;52.426;17.100;2022-07-29T00:47:19;21.10;99.90
24091;DHT22;12272;52.426;17.100;2022-07-29T00:52:21;21.10;99.90
24091;DHT22;12272;52.426;17.100;2022-07-29T00:57:24;21.10;99.90
24091;DHT22;12272;52.426;17.100;2022-07-29T01:02:26;21.10;99.90
24091;DHT22;12272;52.426;17.100;2022-07-29T01:07:30;21.10;99.90
24091;DHT22;12272;52.426;17.100;2022-07-29T01:12:33;21.10;99.90
24091;DHT22;12272;52.426;17.100;2022-07-29T01:29:00;21.10;99.90
24091;DHT22;12272;52.426;17.100;2022-07-29T01:34:14;21.10;99.90
24091;DHT22;12272;52.426;17.100;2022-07-29T01:39:31;21.10;99.90
24091;DHT22;12272;52.426;17.100;2022-07-29T01:44:39;21.10;99.90
24091;DHT22;12272;52.426;17.100;2022-07-29T01:49:49;21.10;99.90
24091;DHT22;12272;52.426;17.100;2022-07-29T01:54:56;21.10;99.90
24091;DHT22;12272;52.426;17.100;2022-07-29T02:00:01;21.10;99.90
24091;DHT22;12272;52.426;17.100;2022-07-29T02:05:15;21.10;99.90
24091;DHT22;12272;52.426;17.100;2022-07-29T02:10:22;21.00;99.90
24091;DHT22;12272;52.426;17.100;2022-07-29T02:15:29;21.10;99.90
24091;DHT22;12272;52.426;17.100;2022-07-29T02:20:33;21.00;99.90
24091;DHT22;12272;52.426;17.100;2022-07-29T02:25:37;21.00;99.90
24091;DHT22;12272;52.426;17.100;2022-07-29T02:30:42;21.00;99.90
24091;DHT22;12272;52.426;17.100;2022-07-29T02:35:47;21.00;99.90
24091;DHT22;12272;52.426;17.100;2022-07-29T02:40:50;21.10;99.90
24091;DHT22;12272;52.426;17.100;2022-07-29T02:45:54;21.00;99.90
24091;DHT22;12272;52.426;17.100;2022-07-29T02:51:05;21.00;99.90
24091;DHT22;12272;52.426;17.100;2022-07-29T02:56:13;21.10;99.90
24091;DHT22;12272;52.426;17.100;2022-07-29T03:01:21;21.00;99.90
24091;DHT22;12272;52.426;17.100;2022-07-29T03:06:25;21.00;99.90
24091;DHT22;12272;52.426;17.100;2022-07-29T03:11:41;21.10;99.90
24091;DHT22;12272;52.426;17.100;2022-07-29T03:16:52;21.00;99.90
24091;DHT22;12272;52.426;17.100;2022-07-29T03:21:56;21.10;99.90
24091;DHT22;12272;52.426;17.100;2022-07-29T03:27:00;21.10;99.90
24091;DHT22;12272;52.426;17.100;2022-07-29T03:32:04;21.10;99.90
24091;DHT22;12272;52.426;17.100;2022-07-29T03:37:10;21.10;99.90
24091;DHT22;12272;52.426;17.100;2022-07-29T03:42:15;21.10;99.90
24091;DHT22;12272;52.426;17.100;2022-07-29T03:47:22;21.10;99.90
24091;DHT22;12272;52.426;17.100;2022-07-29T03:52:45;21.10;99.90
24091;DHT22;12272;52.426;17.100;2022-07-29T03:57:49;21.10;99.90
24091;DHT22;12272;52.426;17.100;2022-07-29T04:02:52;21.10;99.90
24091;DHT22;12272;52.426;17.100;2022-07-29T04:07:55;21.10;99.90
24091;DHT22;12272;52.426;17.100;2022-07-29T04:12:59;21.10;99.90
24091;DHT22;12272;52.426;17.100;2022-07-29T04:18:02;21.20;99.90
24091;DHT22;12272;52.426;17.100;2022-07-29T04:23:04;21.20;99.90
24091;DHT22;12272;52.426;17.100;2022-07-29T04:28:08;21.20;99.90
24091;DHT22;12272;52.426;17.100;2022-07-29T04:33:11;21.20;99.90
24091;DHT22;12272;52.426;17.100;2022-07-29T04:38:14;21.20;99.90
24091;DHT22;12272;52.426;17.100;2022-07-29T04:43:18;21.20;99.90
24091;DHT22;12272;52.426;17.100;2022-07-29T04:48:23;21.20;99.90
24091;DHT22;12272;52.426;17.100;2022-07-29T04:53:30;21.20;99.90
24091;DHT22;12272;52.426;17.100;2022-07-29T04:58:34;21.30;99.90
24091;DHT22;12272;52.426;17.100;2022-07-29T05:03:37;21.30;99.90
24091;DHT22;12272;52.426;17.100;2022-07-29T05:08:39;21.20;99.90
24091;DHT22;12272;52.426;17.100;2022-07-29T05:13:43;21.20;99.90
24091;DHT22;12272;52.426;17.100;2022-07-29T05:18:48;21.30;99.90
24091;DHT22;12272;52.426;17.100;2022-07-29T05:23:50;21.30;99.90
24091;DHT22;12272;52.426;17.100;2022-07-29T05:28:53;21.30;99.90
24091;DHT22;12272;52.426;17.100;2022-07-29T05:33:56;21.30;99.90
24091;DHT22;12272;52.426;17.100;2022-07-29T05:38:59;21.30;99.90
24091;DHT22;12272;52.426;17.100;2022-07-29T05:44:01;21.30;99.90
24091;DHT22;12272;52.426;17.100;2022-07-29T05:49:04;21.40;99.90
24091;DHT22;12272;52.426;17.100;2022-07-29T05:54:08;21.40;99.90
24091;DHT22;12272;52.426;17.100;2022-07-29T05:59:11;21.40;99.90
24091;DHT22;12272;52.426;17.100;2022-07-29T06:04:19;21.40;99.90
24091;DHT22;12272;52.426;17.100;2022-07-29T06:09:22;21.50;99.90
24091;DHT22;12272;52.426;17.100;2022-07-29T06:14:25;21.50;99.90
24091;DHT22;12272;52.426;17.100;2022-07-29T06:19:28;21.50;99.90
24091;DHT22;12272;52.426;17.100;2022-07-29T06:24:31;21.50;99.90
24091;DHT22;12272;52.426;17.100;2022-07-29T06:29:33;21.60;99.90
24091;DHT22;12272;52.426;17.100;2022-07-29T06:34:36;21.60;99.90
24091;DHT22;12272;52.426;17.100;2022-07-29T06:39:39;21.70;99.90
24091;DHT22;12272;52.426;17.100;2022-07-29T06:44:41;21.60;99.90
24091;DHT22;12272;52.426;17.100;2022-07-29T06:49:45;21.50;99.90
24091;DHT22;12272;52.426;17.100;2022-07-29T06:54:47;21.60;99.90
24091;DHT22;12272;52.426;17.100;2022-07-29T06:59:50;21.70;99.90
24091;DHT22;12272;52.426;17.100;2022-07-29T07:04:52;21.80;99.90
24091;DHT22;12272;52.426;17.100;2022-07-29T07:09:55;21.80;99.90
24091;DHT22;12272;52.426;17.100;2022-07-29T07:14:57;21.80;99.90
24091;DHT22;12272;52.426;17.100;2022-07-29T07:20:00;22.00;99.90
24091;DHT22;12272;52.426;17.100;2022-07-29T07:25:03;22.10;99.90
24091;DHT22;12272;52.426;17.100;2022-07-29T07:30:06;22.20;99.90
24091;DHT22;12272;52.426;17.100;2022-07-29T07:35:09;22.50;99.90
24091;DHT22;12272;52.426;17.100;2022-07-29T07:40:13;22.60;99.90
24091;DHT22;12272;52.426;17.100;2022-07-29T07:45:20;22.60;99.90
24091;DHT22;12272;52.426;17.100;2022-07-29T07:50:22;22.60;99.90
24091;DHT22;12272;52.426;17.100;2022-07-29T07:55:25;22.60;99.90
24091;DHT22;12272;52.426;17.100;2022-07-29T08:00:28;22.60;99.90
24091;DHT22;12272;52.426;17.100;2022-07-29T08:05:31;22.70;99.90
24091;DHT22;12272;52.426;17.100;2022-07-29T08:10:35;22.70;99.90
24091;DHT22;12272;52.426;17.100;2022-07-29T08:15:58;22.80;99.90
24091;DHT22;12272;52.426;17.100;2022-07-29T08:21:14;22.80;99.90
24091;DHT22;12272;52.426;17.100;2022-07-29T08:26:16;22.80;99.90
24091;DHT22;12272;52.426;17.100;2022-07-29T08:31:19;22.90;99.90
24091;DHT22;12272;52.426;17.100;2022-07-29T08:36:21;22.80;99.90
24091;DHT22;12272;52.426;17.100;2022-07-29T08:41:24;22.80;99.90
24091;DHT22;12272;52.426;17.100;2022-07-29T08:46:27;22.80;99.90
24091;DHT22;12272;52.426;17.100;2022-07-29T08:51:30;22.80;99.90
24091;DHT22;12272;52.426;17.100;2022-07-29T08:56:33;22.80;99.90
24091;DHT22;12272;52.426;17.100;2022-07-29T09:01:37;22.80;99.90
24091;DHT22;12272;52.426;17.100;2022-07-29T09:06:49;22.80;99.90
24091;DHT22;12272;52.426;17.100;2022-07-29T09:11:53;22.70;99.90
24091;DHT22;12272;52.426;17.100;2022-07-29T09:16:56;22.80;99.90
24091;DHT22;12272;52.426;17.100;2022-07-29T09:22:01;22.90;99.90
24091;DHT22;12272;52.426;17.100;2022-07-29T09:27:09;23.00;99.90
24091;DHT22;12272;52.426;17.100;2022-07-29T09:32:12;23.00;99.90
24091;DHT22;12272;52.426;17.100;2022-07-29T09:37:28;23.10;99.90
24091;DHT22;12272;52.426;17.100;2022-07-29T09:42:31;23.10;99.90
24091;DHT22;12272;52.426;17.100;2022-07-29T09:47:47;23.20;99.90
24091;DHT22;12272;52.426;17.100;2022-07-29T09:52:52;23.30;99.90
24091;DHT22;12272;52.426;17.100;2022-07-29T09:58:18;23.20;99.90
24091;DHT22;12272;52.426;17.100;2022-07-29T10:03:21;23.30;99.90
24091;DHT22;12272;52.426;17.100;2022-07-29T10:08:27;23.20;99.90
24091;DHT22;12272;52.426;17.100;2022-07-29T10:13:29;23.30;99.90
24091;DHT22;12272;52.426;17.100;2022-07-29T10:18:32;23.20;99.90
24091;DHT22;12272;52.426;17.100;2022-07-29T10:23:36;23.20;99.90
24091;DHT22;12272;52.426;17.100;2022-07-29T10:28:48;23.20;99.90
24091;DHT22;12272;52.426;17.100;2022-07-29T10:39:27;23.10;99.90
24091;DHT22;12272;52.426;17.100;2022-07-29T10:44:45;23.40;99.90
24091;DHT22;12272;52.426;17.100;2022-07-29T10:49:59;23.50;99.90
24091;DHT22;12272;52.426;17.100;2022-07-29T10:55:03;23.40;99.60
24091;DHT22;12272;52.426;17.100;2022-07-29T11:05:19;23.60;98.40
24091;DHT22;12272;52.426;17.100;2022-07-29T11:10:23;24.20;98.70
24091;DHT22;12272;52.426;17.100;2022-07-29T11:15:54;24.40;98.50
24091;DHT22;12272;52.426;17.100;2022-07-29T11:20:57;24.50;97.90
24091;DHT22;12272;52.426;17.100;2022-07-29T11:26:13;24.30;97.70
24091;DHT22;12272;52.426;17.100;2022-07-29T11:47:39;24.80;95.70
24091;DHT22;12272;52.426;17.100;2022-07-29T11:52:45;24.70;94.00
24091;DHT22;12272;52.426;17.100;2022-07-29T11:57:53;24.70;97.50
24091;DHT22;12272;52.426;17.100;2022-07-29T12:03:09;24.60;97.30
24091;DHT22;12272;52.426;17.100;2022-07-29T12:08:15;24.60;94.70
24091;DHT22;12272;52.426;17.100;2022-07-29T12:13:21;24.90;95.60
24091;DHT22;12272;52.426;17.100;2022-07-29T12:18:38;24.70;95.80
24091;DHT22;12272;52.426;17.100;2022-07-29T12:23:55;24.60;93.50
24091;DHT22;12272;52.426;17.100;2022-07-29T12:29:03;24.90;93.50
24091;DHT22;12272;52.426;17.100;2022-07-29T12:34:16;24.90;93.90
24091;DHT22;12272;52.426;17.100;2022-07-29T12:39:19;24.20;98.20
24091;DHT22;12272;52.426;17.100;2022-07-29T12:44:22;23.80;99.30
24091;DHT22;12272;52.426;17.100;2022-07-29T12:49:24;25.00;92.60
24091;DHT22;12272;52.426;17.100;2022-07-29T12:54:27;24.50;97.20
24091;DHT22;12272;52.426;17.100;2022-07-29T12:59:29;24.20;97.10
24091;DHT22;12272;52.426;17.100;2022-07-29T13:04:33;24.20;98.10
24091;DHT22;12272;52.426;17.100;2022-07-29T13:09:40;24.60;95.20
24091;DHT22;12272;52.426;17.100;2022-07-29T13:14:46;24.70;95.40
24091;DHT22;12272;52.426;17.100;2022-07-29T13:20:03;24.10;98.30
24091;DHT22;12272;52.426;17.100;2022-07-29T13:25:09;24.60;92.70
24091;DHT22;12272;52.426;17.100;2022-07-29T13:30:12;24.80;93.70
24091;DHT22;12272;52.426;17.100;2022-07-29T13:35:15;24.70;94.10
24091;DHT22;12272;52.426;17.100;2022-07-29T13:40:18;24.30;96.90
24091;DHT22;12272;52.426;17.100;2022-07-29T13:45:21;24.60;94.50
24091;DHT22;12272;52.426;17.100;2022-07-29T13:50:24;24.40;97.00
24091;DHT22;12272;52.426;17.100;2022-07-29T13:55:26;24.00;95.00
24091;DHT22;12272;52.426;17.100;2022-07-29T14:00:29;24.60;96.00
24091;DHT22;12272;52.426;17.100;2022-07-29T14:05:31;24.40;96.10
24091;DHT22;12272;52.426;17.100;2022-07-29T14:10:34;23.90;96.10
24091;DHT22;12272;52.426;17.100;2022-07-29T14:15:37;23.80;99.20
24091;DHT22;12272;52.426;17.100;2022-07-29T14:20:40;24.20;94.80
24091;DHT22;12272;52.426;17.100;2022-07-29T14:25:43;24.50;92.60
24091;DHT22;12272;52.426;17.100;2022-07-29T14:30:46;24.90;90.30
24091;DHT22;12272;52.426;17.100;2022-07-29T14:35:48;25.20;92.70
24091;DHT22;12272;52.426;17.100;2022-07-29T14:40:51;24.70;93.00
24091;DHT22;12272;52.426;17.100;2022-07-29T14:45:54;24.50;91.90
24091;DHT22;12272;52.426;17.100;2022-07-29T14:51:04;24.50;93.90
24091;DHT22;12272;52.426;17.100;2022-07-29T14:56:07;24.50;91.30
24091;DHT22;12272;52.426;17.100;2022-07-29T15:01:29;24.90;96.10
24091;DHT22;12272;52.426;17.100;2022-07-29T15:06:32;25.00;92.60
24091;DHT22;12272;52.426;17.100;2022-07-29T15:11:35;24.80;96.50
24091;DHT22;12272;52.426;17.100;2022-07-29T15:16:40;24.80;94.50
24091;DHT22;12272;52.426;17.100;2022-07-29T15:21:45;24.70;95.60
24091;DHT22;12272;52.426;17.100;2022-07-29T15:27:00;24.50;92.50
24091;DHT22;12272;52.426;17.100;2022-07-29T15:32:03;24.40;97.40
24091;DHT22;12272;52.426;17.100;2022-07-29T15:37:06;24.30;95.10
24091;DHT22;12272;52.426;17.100;2022-07-29T15:42:09;24.50;94.40
24091;DHT22;12272;52.426;17.100;2022-07-29T15:47:11;24.30;96.20
24091;DHT22;12272;52.426;17.100;2022-07-29T15:52:13;24.40;94.70
24091;DHT22;12272;52.426;17.100;2022-07-29T15:57:16;24.40;96.90
24091;DHT22;12272;52.426;17.100;2022-07-29T16:02:19;24.40;94.90
24091;DHT22;12272;52.426;17.100;2022-07-29T16:07:21;24.40;97.20
24091;DHT22;12272;52.426;17.100;2022-07-29T16:12:26;24.50;94.80
24091;DHT22;12272;52.426;17.100;2022-07-29T16:17:29;24.50;93.30
24091;DHT22;12272;52.426;17.100;2022-07-29T16:22:31;24.50;93.90
24091;DHT22;12272;52.426;17.100;2022-07-29T16:27:34;24.70;96.80
24091;DHT22;12272;52.426;17.100;2022-07-29T16:32:39;24.40;96.80
24091;DHT22;12272;52.426;17.100;2022-07-29T16:37:42;24.50;97.50
24091;DHT22;12272;52.426;17.100;2022-07-29T16:42:44;24.30;97.40
24091;DHT22;12272;52.426;17.100;2022-07-29T16:47:48;24.20;96.70
24091;DHT22;12272;52.426;17.100;2022-07-29T16:52:51;24.20;96.40
24091;DHT22;12272;52.426;17.100;2022-07-29T16:57:53;24.10;98.40
24091;DHT22;12272;52.426;17.100;2022-07-29T17:02:56;23.80;96.30
24091;DHT22;12272;52.426;17.100;2022-07-29T17:07:59;24.00;97.10
24091;DHT22;12272;52.426;17.100;2022-07-29T17:13:01;24.20;95.70
24091;DHT22;12272;52.426;17.100;2022-07-29T17:18:04;24.20;97.20
24091;DHT22;12272;52.426;17.100;2022-07-29T17:23:14;24.00;98.80
24091;DHT22;12272;52.426;17.100;2022-07-29T17:28:16;23.90;98.00
24091;DHT22;12272;52.426;17.100;2022-07-29T17:33:19;23.80;98.40
24091;DHT22;12272;52.426;17.100;2022-07-29T17:38:21;23.80;98.70
24091;DHT22;12272;52.426;17.100;2022-07-29T17:43:24;23.60;99.70
24091;DHT22;12272;52.426;17.100;2022-07-29T17:48:26;23.50;99.90
24091;DHT22;12272;52.426;17.100;2022-07-29T17:53:29;23.40;99.50
24091;DHT22;12272;52.426;17.100;2022-07-29T17:58:33;23.30;99.90
24091;DHT22;12272;52.426;17.100;2022-07-29T18:03:35;23.20;99.90
24091;DHT22;12272;52.426;17.100;2022-07-29T18:08:39;23.00;99.90
24091;DHT22;12272;52.426;17.100;2022-07-29T18:13:42;23.00;99.90
24091;DHT22;12272;52.426;17.100;2022-07-29T18:18:45;22.90;99.90
24091;DHT22;12272;52.426;17.100;2022-07-29T18:23:47;22.80;99.90
24091;DHT22;12272;52.426;17.100;2022-07-29T18:28:52;22.70;99.90
24091;DHT22;12272;52.426;17.100;2022-07-29T18:33:54;22.60;99.90
24091;DHT22;12272;52.426;17.100;2022-07-29T18:39:01;22.50;99.90
24091;DHT22;12272;52.426;17.100;2022-07-29T18:44:03;22.40;99.90
24091;DHT22;12272;52.426;17.100;2022-07-29T18:49:06;22.30;99.90
24091;DHT22;12272;52.426;17.100;2022-07-29T18:54:09;22.20;99.90
24091;DHT22;12272;52.426;17.100;2022-07-29T18:59:11;22.10;99.90
24091;DHT22;12272;52.426;17.100;2022-07-29T19:04:18;21.70;99.90
24091;DHT22;12272;52.426;17.100;2022-07-29T19:09:20;21.70;99.90
24091;DHT22;12272;52.426;17.100;2022-07-29T19:14:23;21.80;99.90
24091;DHT22;12272;52.426;17.100;2022-07-29T19:19:25;21.70;99.90
24091;DHT22;12272;52.426;17.100;2022-07-29T19:24:28;21.70;99.90
24091;DHT22;12272;52.426;17.100;2022-07-29T19:29:30;21.60;99.90
24091;DHT22;12272;52.426;17.100;2022-07-29T19:34:33;21.70;99.90
24091;DHT22;12272;52.426;17.100;2022-07-29T19:39:36;21.60;99.90
24091;DHT22;12272;52.426;17.100;2022-07-29T19:44:38;21.60;99.90
24091;DHT22;12272;52.426;17.100;2022-07-29T19:49:41;21.60;99.90
24091;DHT22;12272;52.426;17.100;2022-07-29T19:54:43;21.60;99.90
24091;DHT22;12272;52.426;17.100;2022-07-29T19:59:46;21.60;99.90
24091;DHT22;12272;52.426;17.100;2022-07-29T20:04:49;21.60;99.90
24091;DHT22;12272;52.426;17.100;2022-07-29T20:09:51;21.70;99.90
24091;DHT22;12272;52.426;17.100;2022-07-29T20:14:57;21.60;99.90
24091;DHT22;12272;52.426;17.100;2022-07-29T20:19:59;21.60;99.90
24091;DHT22;12272;52.426;17.100;2022-07-29T20:25:03;21.60;99.90
24091;DHT22;12272;52.426;17.100;2022-07-29T20:30:07;21.60;99.90
24091;DHT22;12272;52.426;17.100;2022-07-29T20:35:12;21.60;99.90
24091;DHT22;12272;52.426;17.100;2022-07-29T20:40:15;21.60;99.90
24091;DHT22;12272;52.426;17.100;2022-07-29T20:45:18;21.60;99.90
24091;DHT22;12272;52.426;17.100;2022-07-29T20:50:21;21.60;99.90
24091;DHT22;12272;52.426;17.100;2022-07-29T20:55:25;21.50;99.90
24091;DHT22;12272;52.426;17.100;2022-07-29T21:00:27;21.50;99.90
24091;DHT22;12272;52.426;17.100;2022-07-29T21:05:30;21.50;99.90
24091;DHT22;12272;52.426;17.100;2022-07-29T21:10:33;21.50;99.90
24091;DHT22;12272;52.426;17.100;2022-07-29T21:15:35;21.50;99.90
24091;DHT22;12272;52.426;17.100;2022-07-29T21:20:38;21.50;99.90
24091;DHT22;12272;52.426;17.100;2022-07-29T21:25:40;21.50;99.90
24091;DHT22;12272;52.426;17.100;2022-07-29T21:30:43;21.50;99.90
24091;DHT22;12272;52.426;17.100;2022-07-29T21:35:45;21.50;99.90
24091;DHT22;12272;52.426;17.100;2022-07-29T21:41:08;21.40;99.90
24091;DHT22;12272;52.426;17.100;2022-07-29T21:46:14;21.40;99.90
24091;DHT22;12272;52.426;17.100;2022-07-29T21:51:17;21.50;99.90
24091;DHT22;12272;52.426;17.100;2022-07-29T21:56:20;21.40;99.90
24091;DHT22;12272;52.426;17.100;2022-07-29T22:01:25;21.40;99.90
24091;DHT22;12272;52.426;17.100;2022-07-29T22:06:28;21.50;99.90
24091;DHT22;12272;52.426;17.100;2022-07-29T22:11:31;21.40;99.90
24091;DHT22;12272;52.426;17.100;2022-07-29T22:16:33;21.40;99.90
24091;DHT22;12272;52.426;17.100;2022-07-29T22:21:36;21.40;99.90
24091;DHT22;12272;52.426;17.100;2022-07-29T22:26:38;21.40;99.90
24091;DHT22;12272;52.426;17.100;2022-07-29T22:31:41;21.40;99.90
24091;DHT22;12272;52.426;17.100;2022-07-29T22:36:44;21.40;99.90
24091;DHT22;12272;52.426;17.100;2022-07-29T22:41:46;21.40;99.90
24091;DHT22;12272;52.426;17.100;2022-07-29T22:46:49;21.20;99.90
24091;DHT22;12272;52.426;17.100;2022-07-29T22:51:51;21.30;99.90
24091;DHT22;12272;52.426;17.100;2022-07-29T22:56:54;21.30;99.90
24091;DHT22;12272;52.426;17.100;2022-07-29T23:01:56;21.40;99.90
24091;DHT22;12272;52.426;17.100;2022-07-29T23:06:59;21.40;99.90
24091;DHT22;12272;52.426;17.100;2022-07-29T23:12:02;21.50;99.90
24091;DHT22;12272;52.426;17.100;2022-07-29T23:17:05;21.50;99.90
24091;DHT22;12272;52.426;17.100;2022-07-29T23:22:08;21.40;99.90
24091;DHT22;12272;52.426;17.100;2022-07-29T23:27:10;21.40;99.90
24091;DHT22;12272;52.426;17.100;2022-07-29T23:32:13;21.40;99.90
24091;DHT22;12272;52.426;17.100;2022-07-29T23:37:15;21.40;99.90
24091;DHT22;12272;52.426;17.100;2022-07-29T23:42:18;21.30;99.90
24091;DHT22;12272;52.426;17.100;2022-07-29T23:47:20;21.30;99.90
24091;DHT22;12272;52.426;17.100;2022-07-29T23:52:23;21.40;99.90
24091;DHT22;12272;52.426;17.100;2022-07-29T23:57:25;21.30;99.90
